createdAt,value
2022-08-04T00:03:44.225Z,5.40
2022-08-04T00:08:55.497Z,5.60
2022-08-04T00:14:12.880Z,5.90
2022-08-04T00:19:30.514Z,5.60
2022-08-04T00:24:35.755Z,5.30
2022-08-04T00:29:41.177Z,6.30
2022-08-04T00:34:44.487Z,7.20
2022-08-04T00:39:47.494Z,6.80
2022-08-04T00:45:18.914Z,6.70
2022-08-04T00:50:40.177Z,6.70
2022-08-04T00:55:56.665Z,6.60
2022-08-04T01:01:05.364Z,6.70
2022-08-04T01:06:36.236Z,6.50
2022-08-04T01:12:00.249Z,6.50
2022-08-04T01:17:24.959Z,5.90
2022-08-04T01:22:35.168Z,6.70
2022-08-04T01:27:37.994Z,6.90
2022-08-04T01:32:52.700Z,6.80
2022-08-04T01:38:24.766Z,6.60
2022-08-04T01:43:30.008Z,7.20
2022-08-04T01:48:34.987Z,7.10
2022-08-04T01:53:41.197Z,7.60
2022-08-04T01:58:44.113Z,6.60
2022-08-04T02:04:20.973Z,6.70
2022-08-04T02:09:22.892Z,7.10
2022-08-04T02:14:44.161Z,7.30
2022-08-04T02:20:12.383Z,6.70
2022-08-04T02:25:23.008Z,6.20
2022-08-04T02:30:36.022Z,5.90
2022-08-04T02:35:41.250Z,7.30
2022-08-04T02:40:46.632Z,6.70
2022-08-04T02:45:55.790Z,7.00
2022-08-04T02:51:01.028Z,5.50
2022-08-04T02:56:07.337Z,6.80
2022-08-04T03:01:10.718Z,7.20
2022-08-04T03:06:29.416Z,7.10
2022-08-04T03:11:47.830Z,6.30
2022-08-04T03:17:30.113Z,6.00
2022-08-04T03:23:14.270Z,5.60
2022-08-04T03:28:38.426Z,6.40
2022-08-04T03:33:56.825Z,6.00
2022-08-04T03:39:39.309Z,6.10
2022-08-04T03:45:00.019Z,6.30
2022-08-04T03:50:27.184Z,5.80
2022-08-04T03:55:37.086Z,6.70
2022-08-04T04:00:52.037Z,6.20
2022-08-04T04:06:16.481Z,5.60
2022-08-04T04:11:29.872Z,5.80
2022-08-04T04:16:50.964Z,5.90
2022-08-04T04:22:06.681Z,5.60
2022-08-04T04:27:32.758Z,5.10
2022-08-04T04:32:42.160Z,5.70
2022-08-04T04:38:11.418Z,5.60
2022-08-04T04:43:50.336Z,4.80
2022-08-04T04:49:07.641Z,4.60
2022-08-04T04:59:38.262Z,4.60
2022-08-04T05:05:00.343Z,4.00
2022-08-04T05:10:34.451Z,4.60
2022-08-04T05:15:42.818Z,4.10
2022-08-04T05:20:53.779Z,4.50
2022-08-04T05:26:01.638Z,4.60
2022-08-04T05:31:11.533Z,5.00
2022-08-04T05:36:35.386Z,4.70
2022-08-04T05:41:55.247Z,5.00
2022-08-04T05:47:03.951Z,4.70
2022-08-04T05:52:10.286Z,4.90
2022-08-04T05:57:15.498Z,4.90
2022-08-04T06:02:22.890Z,5.10
2022-08-04T06:07:26.789Z,4.90
2022-08-04T06:12:58.603Z,5.70
2022-08-04T06:18:35.171Z,5.90
2022-08-04T06:23:37.288Z,5.80
2022-08-04T06:28:59.868Z,5.50
2022-08-04T06:34:08.058Z,5.80
2022-08-04T06:39:12.332Z,5.50
2022-08-04T06:44:17.398Z,4.80
2022-08-04T06:49:22.863Z,4.50
2022-08-04T06:54:25.867Z,4.30
2022-08-04T07:04:32.256Z,4.40
2022-08-04T07:09:35.168Z,3.90
2022-08-04T07:14:41.168Z,3.40
2022-08-04T07:19:46.787Z,3.80
2022-08-04T07:24:55.365Z,3.60
2022-08-04T07:29:59.717Z,3.40
2022-08-04T07:35:04.823Z,3.70
2022-08-04T07:40:08.702Z,3.70
2022-08-04T07:45:12.222Z,3.50
2022-08-04T07:50:16.996Z,3.50
2022-08-04T07:55:20.736Z,3.40
2022-08-04T08:00:25.195Z,3.60
2022-08-04T08:05:29.378Z,3.60
2022-08-04T08:10:32.355Z,3.20
2022-08-04T08:15:36.651Z,2.90
2022-08-04T08:20:39.772Z,3.10
2022-08-04T08:25:42.807Z,3.40
2022-08-04T08:30:45.705Z,3.20
2022-08-04T08:36:03.155Z,3.30
2022-08-04T08:41:21.077Z,3.50
2022-08-04T08:46:49.763Z,3.60
2022-08-04T08:51:52.978Z,3.60
2022-08-04T08:57:29.710Z,3.60
2022-08-04T09:03:04.093Z,3.00
2022-08-04T09:08:10.999Z,3.70
2022-08-04T09:13:18.293Z,3.60
2022-08-04T09:18:44.555Z,3.40
2022-08-04T09:24:36.767Z,3.60
2022-08-04T09:29:43.504Z,3.40
2022-08-04T09:35:04.693Z,3.60
2022-08-04T09:40:35.560Z,3.70
2022-08-04T09:46:01.317Z,3.60
2022-08-04T09:51:24.326Z,3.40
2022-08-04T09:56:58.125Z,3.70
2022-08-04T10:07:38.989Z,3.80
2022-08-04T10:12:53.034Z,3.90
2022-08-04T10:18:17.666Z,4.20
2022-08-04T10:23:56.793Z,3.90
2022-08-04T10:29:17.393Z,4.10
2022-08-04T10:34:26.515Z,4.30
2022-08-04T10:40:18.009Z,3.90
2022-08-04T10:45:26.987Z,4.20
2022-08-04T10:50:30.599Z,4.10
2022-08-04T10:56:10.833Z,4.00
2022-08-04T11:01:59.694Z,4.20
2022-08-04T11:06:47.325Z,4.00
2022-08-04T11:12:00.377Z,3.90
2022-08-04T11:17:09.898Z,4.10
2022-08-04T11:22:26.301Z,4.40
2022-08-04T11:28:07.428Z,4.40
2022-08-04T11:33:22.379Z,4.10
2022-08-04T11:38:29.050Z,4.70
2022-08-04T11:44:03.908Z,4.00
2022-08-04T11:49:31.610Z,4.40
2022-08-04T11:54:56.229Z,3.70
2022-08-04T12:05:35.433Z,4.10
2022-08-04T12:10:51.652Z,4.20
2022-08-04T12:15:54.844Z,4.10
2022-08-04T12:21:00.956Z,5.00
2022-08-04T12:26:14.570Z,4.50
2022-08-04T12:31:26.685Z,3.80
2022-08-04T12:36:29.361Z,4.40
2022-08-04T12:41:41.881Z,4.80
2022-08-04T12:46:47.268Z,5.00
2022-08-04T12:52:07.615Z,4.20
2022-08-04T12:57:16.609Z,4.50
2022-08-04T13:02:35.293Z,5.20
2022-08-04T13:07:53.020Z,4.80
2022-08-04T13:13:01.029Z,4.90
2022-08-04T13:18:11.889Z,4.60
2022-08-04T13:23:21.936Z,5.00
2022-08-04T13:28:28.408Z,4.70
2022-08-04T13:33:33.995Z,4.60
2022-08-04T13:38:41.140Z,4.40
2022-08-04T13:44:18.853Z,4.80
2022-08-04T13:49:31.302Z,4.70
2022-08-04T13:54:44.252Z,4.60
2022-08-04T13:59:52.857Z,5.20
2022-08-04T14:05:01.941Z,4.20
2022-08-04T14:10:14.423Z,4.80
2022-08-04T14:16:02.341Z,4.60
2022-08-04T14:21:16.328Z,4.60
2022-08-04T14:31:36.210Z,4.10
2022-08-04T14:37:18.601Z,4.40
2022-08-04T14:42:55.344Z,4.60
2022-08-04T14:48:02.493Z,4.50
2022-08-04T14:53:08.614Z,4.90
2022-08-04T14:58:34.088Z,4.40
2022-08-04T15:03:50.182Z,4.80
2022-08-04T15:09:04.623Z,3.90
2022-08-04T15:14:08.824Z,4.70
2022-08-04T15:19:31.954Z,4.60
2022-08-04T15:24:37.103Z,5.90
2022-08-04T15:30:00.904Z,4.80
2022-08-04T15:35:21.014Z,4.60
2022-08-04T15:40:33.749Z,5.00
2022-08-04T15:46:41.173Z,4.90
2022-08-04T15:51:32.825Z,5.30
2022-08-04T15:56:35.962Z,4.50
2022-08-04T16:01:39.365Z,4.60
2022-08-04T16:06:43.771Z,4.60
2022-08-04T16:11:46.858Z,4.90
2022-08-04T16:16:50.421Z,4.70
2022-08-04T16:21:56.105Z,4.60
2022-08-04T16:27:00.963Z,4.60
2022-08-04T16:32:07.844Z,5.00
2022-08-04T16:37:13.231Z,4.70
2022-08-04T16:42:28.291Z,4.70
2022-08-04T16:47:49.596Z,4.60
2022-08-04T16:52:54.250Z,4.60
2022-08-04T16:57:59.895Z,4.60
2022-08-04T17:03:07.881Z,4.80
2022-08-04T17:08:29.995Z,4.50
2022-08-04T17:14:04.405Z,4.70
2022-08-04T17:18:58.579Z,4.90
2022-08-04T17:24:14.917Z,4.80
2022-08-04T17:29:20.266Z,4.50
2022-08-04T17:34:26.414Z,4.90
2022-08-04T17:39:34.955Z,5.10
2022-08-04T17:44:43.525Z,4.90
2022-08-04T17:49:53.287Z,5.80
2022-08-04T17:55:02.870Z,5.10
2022-08-04T18:00:07.738Z,5.30
2022-08-04T18:05:50.265Z,5.40
2022-08-04T18:10:57.123Z,5.70
2022-08-04T18:16:05.312Z,5.30
2022-08-04T18:21:08.286Z,5.30
2022-08-04T18:26:11.943Z,5.60
2022-08-04T18:31:16.624Z,5.70
2022-08-04T18:36:35.435Z,6.10
2022-08-04T18:42:01.705Z,5.70
2022-08-04T18:47:19.432Z,5.80
2022-08-04T18:52:26.207Z,5.60
2022-08-04T18:57:59.273Z,5.90
2022-08-04T19:02:55.345Z,5.30
2022-08-04T19:08:32.347Z,5.60
2022-08-04T19:13:27.090Z,6.10
2022-08-04T19:18:32.378Z,6.20
2022-08-04T19:24:11.050Z,6.20
2022-08-04T19:29:04.026Z,6.10
2022-08-04T19:34:11.704Z,5.80
2022-08-04T19:44:20.970Z,6.40
2022-08-04T19:50:02.736Z,6.30
2022-08-04T19:54:50.451Z,6.70
2022-08-04T19:59:55.139Z,6.80
2022-08-04T20:04:58.937Z,6.40
2022-08-04T20:10:04.325Z,6.30
2022-08-04T20:20:19.148Z,6.80
2022-08-04T20:25:36.781Z,6.70
2022-08-04T20:30:40.805Z,6.80
2022-08-04T20:35:46.006Z,6.90
2022-08-04T20:41:06.877Z,6.70
2022-08-04T20:46:17.733Z,8.20
2022-08-04T20:51:31.445Z,8.50
2022-08-04T20:56:36.055Z,7.70
2022-08-04T21:01:40.566Z,7.40
2022-08-04T21:06:51.819Z,7.40
2022-08-04T21:11:55.020Z,6.10
2022-08-04T21:17:01.108Z,6.60
2022-08-04T21:22:10.318Z,6.10
2022-08-04T21:27:14.160Z,5.40
2022-08-04T21:32:17.631Z,5.50
2022-08-04T21:37:21.482Z,6.00
2022-08-04T21:42:29.580Z,5.70
2022-08-04T21:47:45.763Z,5.50
2022-08-04T21:52:51.332Z,5.80
2022-08-04T21:57:54.957Z,5.40
2022-08-04T22:03:03.474Z,5.10
2022-08-04T22:08:06.419Z,5.20
2022-08-04T22:13:24.663Z,5.10
2022-08-04T22:18:47.542Z,4.90
2022-08-04T22:23:51.179Z,4.60
2022-08-04T22:28:56.260Z,4.30
2022-08-04T22:33:59.206Z,4.20
2022-08-04T22:39:07.234Z,3.90
2022-08-04T22:44:15.354Z,3.60
2022-08-04T22:49:25.186Z,3.90
2022-08-04T22:59:42.864Z,3.30
2022-08-04T23:04:52.355Z,3.40
2022-08-04T23:09:57.126Z,3.40
2022-08-04T23:15:00.082Z,3.70
2022-08-04T23:20:03.213Z,3.40
2022-08-04T23:25:07.086Z,3.10
2022-08-04T23:30:29.400Z,3.20
2022-08-04T23:35:33.260Z,3.20
2022-08-04T23:40:50.012Z,3.20
2022-08-04T23:46:07.475Z,3.50
2022-08-04T23:51:14.182Z,3.20
2022-08-04T23:56:19.754Z,3.40
